createdAt,value
2022-09-07T00:01:52.104Z,6.18
2022-09-07T00:04:20.883Z,8.25
2022-09-07T00:06:48.387Z,5.90
2022-09-07T00:09:16.344Z,5.50
2022-09-07T00:11:43.618Z,7.57
2022-09-07T00:14:11.200Z,7.50
2022-09-07T00:16:39.025Z,6.28
2022-09-07T00:19:06.394Z,6.72
2022-09-07T00:21:35.220Z,7.63
2022-09-07T00:24:03.224Z,5.65
2022-09-07T00:26:31.980Z,6.07
2022-09-07T00:29:01.539Z,5.82
2022-09-07T00:31:30.938Z,4.88
2022-09-07T00:34:00.719Z,4.40
2022-09-07T00:36:28.054Z,4.85
2022-09-07T00:38:57.214Z,5.80
2022-09-07T00:41:24.837Z,5.90
2022-09-07T00:43:54.306Z,6.68
2022-09-07T00:46:24.147Z,6.57
2022-09-07T00:48:55.588Z,5.05
2022-09-07T00:51:27.993Z,7.93
2022-09-07T00:56:31.212Z,7.32
2022-09-07T00:58:59.107Z,5.25
2022-09-07T01:01:26.531Z,5.55
2022-09-07T01:03:57.486Z,7.70
2022-09-07T01:06:27.896Z,5.47
2022-09-07T01:09:01.600Z,7.65
2022-09-07T01:11:30.830Z,6.07
2022-09-07T01:13:58.827Z,5.68
2022-09-07T01:16:41.816Z,5.82
2022-09-07T01:19:37.761Z,8.43
2022-09-07T01:22:24.592Z,7.15
2022-09-07T01:25:04.626Z,6.05
2022-09-07T01:27:57.107Z,5.13
2022-09-07T01:30:25.818Z,5.82
2022-09-07T01:33:11.754Z,5.53
2022-09-07T01:35:47.441Z,5.88
2022-09-07T01:38:21.642Z,4.82
2022-09-07T01:40:55.743Z,5.85
2022-09-07T01:43:33.635Z,5.60
2022-09-07T01:46:05.475Z,5.80
2022-09-07T01:48:36.515Z,5.72
2022-09-07T01:51:05.316Z,5.75
2022-09-07T01:53:37.887Z,5.30
2022-09-07T01:56:10.288Z,5.97
2022-09-07T01:58:44.019Z,5.22
2022-09-07T02:01:20.419Z,7.38
2022-09-07T02:03:52.035Z,6.18
2022-09-07T02:06:22.847Z,6.03
2022-09-07T02:08:56.381Z,6.68
2022-09-07T02:11:29.021Z,6.05
2022-09-07T02:18:57.066Z,7.60
2022-09-07T02:21:29.510Z,5.03
2022-09-07T02:24:02.697Z,5.63
2022-09-07T02:26:30.739Z,6.22
2022-09-07T02:28:59.850Z,5.72
2022-09-07T02:31:27.357Z,5.50
2022-09-07T02:33:54.702Z,4.68
2022-09-07T02:36:26.628Z,6.65
2022-09-07T02:38:53.802Z,6.70
2022-09-07T02:41:32.094Z,8.80
2022-09-07T02:44:03.286Z,5.35
2022-09-07T02:46:45.146Z,7.95
2022-09-07T02:49:27.290Z,6.40
2022-09-07T02:52:09.472Z,6.75
2022-09-07T02:54:52.626Z,6.30
2022-09-07T02:57:26.631Z,5.53
2022-09-07T03:00:05.517Z,5.05
2022-09-07T03:02:45.227Z,6.45
2022-09-07T03:05:17.639Z,5.60
2022-09-07T03:07:50.214Z,5.45
2022-09-07T03:10:19.195Z,7.47
2022-09-07T03:12:49.425Z,8.32
2022-09-07T03:15:20.887Z,5.22
2022-09-07T03:17:49.238Z,6.57
2022-09-07T03:20:17.710Z,6.43
2022-09-07T03:22:46.947Z,5.78
2022-09-07T03:25:16.957Z,7.32
2022-09-07T03:27:44.679Z,6.93
2022-09-07T03:30:13.121Z,6.90
2022-09-07T03:32:42.222Z,6.80
2022-09-07T03:35:10.071Z,5.43
2022-09-07T03:37:37.858Z,4.18
2022-09-07T03:40:08.982Z,6.88
2022-09-07T03:42:37.400Z,6.13
2022-09-07T03:45:09.622Z,7.25
2022-09-07T03:47:37.732Z,5.85
2022-09-07T03:50:08.681Z,9.73
2022-09-07T03:52:37.720Z,7.25
2022-09-07T03:55:07.990Z,7.43
2022-09-07T03:57:35.503Z,6.32
2022-09-07T04:00:04.886Z,5.50
2022-09-07T04:02:32.188Z,4.43
2022-09-07T04:04:59.487Z,7.35
2022-09-07T04:07:28.688Z,6.05
2022-09-07T04:09:55.894Z,6.60
2022-09-07T04:12:23.253Z,5.32
2022-09-07T04:14:51.145Z,6.18
2022-09-07T04:17:18.545Z,6.60
2022-09-07T04:19:45.858Z,4.55
2022-09-07T04:22:13.412Z,8.50
2022-09-07T04:24:42.314Z,8.07
2022-09-07T04:27:09.634Z,5.35
2022-09-07T04:29:37.177Z,7.10
2022-09-07T04:32:04.438Z,4.95
2022-09-07T04:34:31.780Z,5.75
2022-09-07T04:36:59.776Z,9.48
2022-09-07T04:39:27.173Z,4.68
2022-09-07T04:41:55.795Z,4.95
2022-09-07T04:44:23.389Z,4.47
2022-09-07T04:46:50.815Z,6.22
2022-09-07T04:49:18.169Z,6.88
2022-09-07T04:51:45.735Z,6.65
2022-09-07T04:54:13.058Z,5.70
2022-09-07T04:56:40.547Z,6.40
2022-09-07T04:59:09.609Z,6.07
2022-09-07T05:01:37.044Z,7.55
2022-09-07T05:04:05.178Z,9.43
2022-09-07T05:06:33.133Z,6.00
2022-09-07T05:09:00.757Z,9.45
2022-09-07T05:11:29.925Z,7.50
2022-09-07T05:13:58.652Z,6.80
2022-09-07T05:16:28.132Z,6.28
2022-09-07T05:18:57.521Z,5.65
2022-09-07T05:21:28.020Z,5.93
2022-09-07T05:23:57.232Z,8.13
2022-09-07T05:26:26.545Z,7.53
2022-09-07T05:31:42.900Z,6.03
2022-09-07T05:36:58.419Z,8.77
2022-09-07T05:39:26.286Z,6.53
2022-09-07T05:41:53.522Z,4.03
2022-09-07T05:47:10.398Z,5.63
2022-09-07T05:49:37.687Z,6.03
2022-09-07T05:52:04.987Z,7.00
2022-09-07T05:54:32.720Z,9.18
2022-09-07T05:56:59.977Z,6.40
2022-09-07T05:59:27.251Z,6.50
2022-09-07T06:01:55.192Z,6.05
2022-09-07T06:04:23.983Z,6.72
2022-09-07T06:07:18.086Z,5.28
2022-09-07T06:12:26.315Z,5.78
2022-09-07T06:14:53.922Z,7.85
2022-09-07T06:17:21.193Z,6.43
2022-09-07T06:19:50.009Z,7.07
2022-09-07T06:22:17.647Z,8.00
2022-09-07T06:24:45.162Z,6.50
2022-09-07T06:27:12.714Z,7.90
2022-09-07T06:29:40.491Z,10.00
2022-09-07T06:34:56.821Z,7.15
2022-09-07T06:37:24.235Z,5.95
2022-09-07T06:39:51.619Z,4.55
2022-09-07T06:42:19.192Z,4.72
2022-09-07T06:44:46.517Z,8.60
2022-09-07T06:47:14.027Z,5.55
2022-09-07T06:49:41.581Z,6.88
2022-09-07T06:52:10.297Z,7.32
2022-09-07T06:57:25.234Z,6.88
2022-09-07T06:59:52.497Z,8.10
2022-09-07T07:02:19.838Z,6.00
2022-09-07T07:04:47.885Z,7.55
2022-09-07T07:07:16.572Z,5.07
2022-09-07T07:09:43.959Z,7.72
2022-09-07T07:12:11.674Z,7.05
2022-09-07T07:14:42.684Z,6.10
2022-09-07T07:17:12.906Z,8.55
2022-09-07T07:19:40.176Z,7.75
2022-09-07T07:22:24.008Z,7.93
2022-09-07T07:24:56.478Z,7.90
2022-09-07T07:27:23.803Z,9.80
2022-09-07T07:29:50.999Z,7.40
2022-09-07T07:32:18.600Z,6.45
2022-09-07T07:34:45.753Z,8.40
2022-09-07T07:37:12.893Z,6.50
2022-09-07T07:42:29.050Z,8.70
2022-09-07T07:47:48.401Z,7.90
2022-09-07T07:50:32.451Z,7.10
2022-09-07T07:55:48.604Z,6.93
2022-09-07T07:58:17.467Z,5.53
2022-09-07T08:00:54.167Z,8.30
2022-09-07T08:03:23.156Z,8.27
2022-09-07T08:05:50.592Z,11.90
2022-09-07T08:08:17.924Z,6.60
2022-09-07T08:10:45.915Z,6.32
2022-09-07T08:13:13.433Z,7.95
2022-09-07T08:15:42.585Z,8.38
2022-09-07T08:18:10.283Z,7.93
2022-09-07T08:20:37.760Z,7.30
2022-09-07T08:23:05.341Z,6.68
2022-09-07T08:25:33.327Z,7.75
2022-09-07T08:28:00.638Z,8.02
2022-09-07T08:30:28.146Z,7.43
2022-09-07T08:32:57.427Z,8.98
2022-09-07T08:35:25.108Z,8.52
2022-09-07T08:37:52.351Z,8.55
2022-09-07T08:40:20.212Z,6.78
2022-09-07T08:43:00.563Z,7.97
2022-09-07T08:45:34.035Z,6.22
2022-09-07T08:48:04.973Z,6.97
2022-09-07T08:50:39.668Z,7.05
2022-09-07T08:53:12.472Z,10.38
2022-09-07T08:55:45.563Z,10.35
2022-09-07T08:58:38.508Z,9.57
2022-09-07T09:04:17.993Z,7.15
2022-09-07T09:07:03.913Z,6.95
2022-09-07T09:09:41.547Z,10.32
2022-09-07T09:12:18.466Z,9.60
2022-09-07T09:14:58.429Z,8.10
2022-09-07T09:17:29.463Z,9.23
2022-09-07T09:20:08.909Z,6.80
2022-09-07T09:22:36.698Z,7.07
2022-09-07T09:25:17.030Z,7.28
2022-09-07T09:27:44.758Z,7.22
2022-09-07T09:30:14.403Z,6.18
2022-09-07T09:32:43.690Z,8.25
2022-09-07T09:35:16.851Z,9.90
2022-09-07T09:37:44.708Z,10.13
2022-09-07T09:40:24.406Z,7.38
2022-09-07T09:43:00.573Z,8.85
2022-09-07T09:45:30.186Z,7.97
2022-09-07T09:47:58.351Z,10.57
2022-09-07T09:53:25.684Z,8.20
2022-09-07T09:55:54.071Z,11.68
2022-09-07T10:01:27.067Z,8.80
2022-09-07T10:03:56.952Z,6.82
2022-09-07T10:06:27.946Z,8.32
2022-09-07T10:08:58.228Z,7.05
2022-09-07T10:14:33.325Z,7.70
2022-09-07T10:17:10.366Z,11.40
2022-09-07T10:19:39.477Z,7.82
2022-09-07T10:22:22.002Z,9.93
2022-09-07T10:24:50.372Z,7.30
2022-09-07T10:27:32.499Z,6.68
2022-09-07T10:30:00.319Z,10.25
2022-09-07T10:32:48.449Z,7.28
2022-09-07T10:35:21.270Z,6.63
2022-09-07T10:38:05.310Z,10.25
2022-09-07T10:40:35.178Z,7.70
2022-09-07T10:43:22.966Z,6.60
2022-09-07T10:46:05.217Z,7.68
2022-09-07T10:48:40.373Z,11.10
2022-09-07T10:51:16.256Z,8.98
2022-09-07T10:56:55.443Z,8.10
2022-09-07T11:06:54.364Z,8.60
2022-09-07T11:09:42.828Z,7.13
2022-09-07T11:12:17.437Z,14.02
2022-09-07T11:14:48.334Z,9.25
2022-09-07T11:17:18.861Z,7.75
2022-09-07T11:19:53.781Z,7.85
2022-09-07T11:22:34.979Z,6.25
2022-09-07T11:25:30.028Z,7.95
2022-09-07T11:28:01.247Z,7.78
2022-09-07T11:30:32.096Z,10.38
2022-09-07T11:33:05.183Z,10.00
2022-09-07T11:35:39.952Z,11.55
2022-09-07T11:38:22.834Z,11.98
2022-09-07T11:41:02.286Z,6.10
2022-09-07T11:43:35.571Z,9.40
2022-09-07T11:46:07.795Z,7.35
2022-09-07T11:49:00.350Z,7.35
2022-09-07T11:51:38.443Z,10.48
2022-09-07T11:54:19.388Z,7.93
2022-09-07T11:56:54.718Z,8.45
2022-09-07T11:59:36.732Z,7.50
2022-09-07T12:02:58.211Z,7.30
2022-09-07T12:05:44.889Z,10.10
2022-09-07T12:08:35.626Z,9.77
2022-09-07T12:11:23.367Z,7.00
2022-09-07T12:14:12.594Z,13.38
2022-09-07T12:16:57.109Z,9.43
2022-09-07T12:19:26.465Z,6.57
2022-09-07T12:21:58.935Z,8.15
2022-09-07T12:24:48.821Z,7.53
2022-09-07T12:27:39.236Z,8.93
2022-09-07T12:30:48.910Z,10.85
2022-09-07T12:33:30.844Z,9.93
2022-09-07T12:35:59.494Z,8.18
2022-09-07T12:39:03.468Z,7.30
2022-09-07T12:42:31.855Z,10.23
2022-09-07T12:47:26.954Z,8.63
2022-09-07T12:50:20.276Z,7.68
2022-09-07T12:52:52.896Z,11.10
2022-09-07T12:58:49.415Z,10.10
2022-09-07T13:01:30.876Z,7.20
2022-09-07T13:04:26.405Z,9.07
2022-09-07T13:07:32.294Z,8.10
2022-09-07T13:10:01.224Z,9.73
2022-09-07T13:15:48.629Z,11.10
2022-09-07T13:18:40.985Z,7.47
2022-09-07T13:21:34.657Z,7.47
2022-09-07T13:24:47.641Z,8.88
2022-09-07T13:27:43.920Z,10.52
2022-09-07T13:30:30.516Z,7.93
2022-09-07T13:33:47.478Z,9.27
2022-09-07T13:36:25.661Z,10.95
2022-09-07T13:38:54.807Z,7.82
2022-09-07T13:41:27.667Z,8.52
2022-09-07T13:43:59.369Z,8.75
2022-09-07T13:46:47.493Z,9.82
2022-09-07T13:49:28.101Z,9.77
2022-09-07T13:52:00.747Z,8.35
2022-09-07T13:54:54.603Z,11.15
2022-09-07T13:57:29.197Z,10.15
2022-09-07T13:59:57.681Z,6.82
2022-09-07T14:02:28.189Z,8.05
2022-09-07T14:04:57.906Z,7.40
2022-09-07T14:07:27.227Z,9.50
2022-09-07T14:10:12.214Z,8.85
2022-09-07T14:12:47.211Z,10.63
2022-09-07T14:15:20.313Z,8.90
2022-09-07T14:17:49.659Z,9.88
2022-09-07T14:20:18.152Z,7.30
2022-09-07T14:22:49.399Z,8.50
2022-09-07T14:25:20.331Z,6.85
2022-09-07T14:27:51.710Z,9.50
2022-09-07T14:30:25.346Z,8.07
2022-09-07T14:32:54.946Z,11.32
2022-09-07T14:35:24.802Z,8.65
2022-09-07T14:37:53.322Z,7.25
2022-09-07T14:40:23.242Z,8.95
2022-09-07T14:42:53.747Z,12.32
2022-09-07T14:45:32.760Z,8.93
2022-09-07T14:48:11.220Z,9.88
2022-09-07T14:50:39.145Z,7.05
2022-09-07T14:56:09.790Z,7.90
2022-09-07T14:58:39.190Z,8.07
2022-09-07T15:04:17.314Z,8.13
2022-09-07T15:09:36.489Z,7.50
2022-09-07T15:12:12.387Z,7.63
2022-09-07T15:14:42.372Z,7.65
2022-09-07T15:20:30.436Z,8.68
2022-09-07T15:22:57.973Z,9.38
2022-09-07T15:25:26.012Z,7.25
2022-09-07T15:27:54.325Z,9.93
2022-09-07T15:30:23.070Z,8.30
2022-09-07T15:32:51.086Z,9.60
2022-09-07T15:35:18.559Z,10.10
2022-09-07T15:40:37.963Z,9.73
2022-09-07T15:43:19.507Z,9.55
2022-09-07T15:45:51.206Z,7.45
2022-09-07T15:48:21.279Z,8.65
2022-09-07T15:50:49.461Z,7.38
2022-09-07T15:56:07.896Z,6.68
2022-09-07T15:58:35.230Z,7.07
2022-09-07T16:03:53.413Z,9.23
2022-09-07T16:06:24.121Z,8.95
2022-09-07T16:08:51.918Z,9.48
2022-09-07T16:11:23.872Z,8.10
2022-09-07T16:13:55.143Z,11.20
2022-09-07T16:17:25.716Z,9.82
2022-09-07T16:19:13.717Z,10.18
2022-09-07T16:21:41.847Z,7.63
2022-09-07T16:24:09.334Z,8.82
2022-09-07T16:26:36.771Z,8.15
2022-09-07T16:29:05.678Z,8.23
2022-09-07T16:31:35.013Z,7.15
2022-09-07T16:34:02.825Z,10.25
2022-09-07T16:36:30.860Z,7.32
2022-09-07T16:39:00.510Z,8.95
2022-09-07T16:41:30.092Z,10.13
2022-09-07T16:43:58.438Z,7.88
2022-09-07T16:46:28.372Z,9.60
2022-09-07T16:48:57.612Z,10.15
2022-09-07T16:51:28.585Z,7.45
2022-09-07T16:53:57.547Z,10.38
2022-09-07T16:56:28.577Z,11.88
2022-09-07T16:58:57.347Z,8.75
2022-09-07T17:01:26.663Z,8.82
2022-09-07T17:03:54.721Z,9.13
2022-09-07T17:06:25.549Z,9.75
2022-09-07T17:08:53.765Z,12.38
2022-09-07T17:11:23.074Z,7.32
2022-09-07T17:13:51.530Z,8.30
2022-09-07T17:16:22.043Z,8.25
2022-09-07T17:21:39.797Z,9.93
2022-09-07T17:24:09.503Z,7.13
2022-09-07T17:26:37.554Z,8.50
2022-09-07T17:29:04.885Z,10.50
2022-09-07T17:34:21.849Z,10.40
2022-09-07T17:36:51.554Z,8.52
2022-09-07T17:39:19.701Z,9.48
2022-09-07T17:41:48.168Z,9.38
2022-09-07T17:44:16.904Z,11.93
2022-09-07T17:46:44.308Z,10.57
2022-09-07T17:49:12.149Z,8.40
2022-09-07T17:51:40.095Z,9.38
2022-09-07T17:54:13.146Z,7.18
2022-09-07T17:56:41.878Z,9.73
2022-09-07T18:01:58.656Z,8.27
2022-09-07T18:04:26.192Z,12.00
2022-09-07T18:06:54.443Z,12.43
2022-09-07T18:09:23.733Z,10.32
2022-09-07T18:11:51.259Z,10.77
2022-09-07T18:14:19.383Z,11.35
2022-09-07T18:16:49.407Z,7.20
2022-09-07T18:19:18.289Z,10.40
2022-09-07T18:21:46.808Z,11.43
2022-09-07T18:24:16.802Z,9.80
2022-09-07T18:26:51.545Z,10.40
2022-09-07T18:29:37.448Z,8.88
2022-09-07T18:32:08.524Z,8.82
2022-09-07T18:34:38.592Z,10.35
2022-09-07T18:37:06.263Z,9.38
2022-09-07T18:39:33.766Z,8.77
2022-09-07T18:42:03.087Z,13.60
2022-09-07T18:47:23.090Z,11.13
2022-09-07T18:49:55.245Z,9.35
2022-09-07T18:55:11.137Z,8.70
2022-09-07T18:57:40.899Z,9.13
2022-09-07T19:00:11.077Z,10.18
2022-09-07T19:02:39.035Z,12.57
2022-09-07T19:07:55.264Z,12.05
2022-09-07T19:10:23.127Z,11.07
2022-09-07T19:12:51.912Z,8.80
2022-09-07T19:15:19.531Z,10.90
2022-09-07T19:17:47.278Z,10.45
2022-09-07T19:20:14.999Z,10.00
2022-09-07T19:22:42.371Z,11.65
2022-09-07T19:25:10.359Z,8.10
2022-09-07T19:27:37.895Z,11.30
2022-09-07T19:30:07.721Z,10.90
2022-09-07T19:32:36.806Z,10.40
2022-09-07T19:35:04.953Z,10.35
2022-09-07T19:37:32.723Z,10.60
2022-09-07T19:40:00.664Z,8.63
2022-09-07T19:42:28.553Z,9.63
2022-09-07T19:44:55.915Z,10.55
2022-09-07T19:47:25.081Z,12.07
2022-09-07T19:49:52.645Z,12.02
2022-09-07T19:52:20.030Z,11.50
2022-09-07T19:54:47.603Z,10.65
2022-09-07T19:57:15.278Z,10.77
2022-09-07T19:59:42.605Z,10.65
2022-09-07T20:02:10.513Z,11.88
2022-09-07T20:04:39.338Z,9.68
2022-09-07T20:07:06.653Z,10.90
2022-09-07T20:09:34.437Z,13.15
2022-09-07T20:12:01.858Z,15.02
2022-09-07T20:14:29.191Z,13.95
2022-09-07T20:16:57.524Z,13.48
2022-09-07T20:19:24.821Z,13.32
2022-09-07T20:21:53.861Z,15.38
2022-09-07T20:24:21.726Z,14.68
2022-09-07T20:26:49.213Z,10.32
2022-09-07T20:29:27.446Z,9.80
2022-09-07T20:31:56.626Z,11.02
2022-09-07T20:34:24.116Z,10.38
2022-09-07T20:36:53.366Z,11.32
2022-09-07T20:39:21.410Z,10.60
2022-09-07T20:41:49.072Z,12.05
2022-09-07T20:44:16.674Z,13.50
2022-09-07T20:46:44.291Z,12.90
2022-09-07T20:49:11.925Z,11.18
2022-09-07T20:51:42.330Z,12.05
2022-09-07T20:54:11.462Z,11.13
2022-09-07T20:56:38.776Z,15.77
2022-09-07T20:59:06.178Z,9.60
2022-09-07T21:01:33.922Z,11.77
2022-09-07T21:04:01.806Z,11.63
2022-09-07T21:06:31.317Z,11.02
2022-09-07T21:08:59.683Z,11.32
2022-09-07T21:11:30.389Z,11.02
2022-09-07T21:13:59.551Z,12.20
2022-09-07T21:16:28.532Z,14.88
2022-09-07T21:18:57.565Z,11.60
2022-09-07T21:21:26.206Z,11.90
2022-09-07T21:23:57.967Z,11.68
2022-09-07T21:26:25.868Z,10.25
2022-09-07T21:28:59.450Z,10.98
2022-09-07T21:31:28.299Z,12.48
2022-09-07T21:33:56.466Z,11.23
2022-09-07T21:36:24.972Z,12.30
2022-09-07T21:38:53.404Z,15.65
2022-09-07T21:41:23.097Z,11.80
2022-09-07T21:43:54.870Z,10.65
2022-09-07T21:46:24.369Z,11.82
2022-09-07T21:48:51.689Z,12.80
2022-09-07T21:51:19.355Z,15.10
2022-09-07T21:53:51.374Z,11.13
2022-09-07T21:56:18.592Z,11.43
2022-09-07T21:58:46.526Z,12.38
2022-09-07T22:01:17.196Z,13.45
2022-09-07T22:03:48.420Z,12.52
2022-09-07T22:06:16.060Z,14.23
2022-09-07T22:08:43.673Z,14.30
2022-09-07T22:11:13.064Z,13.20
2022-09-07T22:13:40.727Z,11.93
2022-09-07T22:16:08.423Z,10.60
2022-09-07T22:18:36.481Z,11.77
2022-09-07T22:21:08.004Z,14.73
2022-09-07T22:23:37.022Z,15.48
2022-09-07T22:26:07.069Z,14.88
2022-09-07T22:28:36.784Z,12.68
2022-09-07T22:31:12.223Z,12.52
2022-09-07T22:33:40.047Z,12.73
2022-09-07T22:36:15.093Z,13.68
2022-09-07T22:38:44.774Z,10.52
2022-09-07T22:41:13.755Z,14.32
2022-09-07T22:43:42.032Z,14.93
2022-09-07T22:46:10.765Z,12.25
2022-09-07T22:48:38.262Z,15.23
2022-09-07T22:51:06.305Z,13.35
2022-09-07T22:53:37.047Z,14.85
2022-09-07T22:56:06.737Z,14.18
2022-09-07T22:58:34.511Z,17.33
2022-09-07T23:01:02.511Z,14.73
2022-09-07T23:03:31.151Z,18.42
2022-09-07T23:05:58.755Z,13.70
2022-09-07T23:08:27.394Z,15.50
2022-09-07T23:11:01.391Z,13.13
2022-09-07T23:13:28.916Z,14.63
2022-09-07T23:15:56.326Z,18.30
2022-09-07T23:18:23.572Z,14.25
2022-09-07T23:20:51.085Z,14.20
2022-09-07T23:23:18.527Z,14.70
2022-09-07T23:25:45.881Z,15.18
2022-09-07T23:28:14.987Z,15.90
2022-09-07T23:30:46.734Z,16.25
2022-09-07T23:33:14.021Z,13.48
2022-09-07T23:35:41.611Z,14.65
2022-09-07T23:38:09.505Z,14.30
2022-09-07T23:40:36.830Z,14.52
2022-09-07T23:43:04.365Z,14.40
2022-09-07T23:45:32.968Z,15.85
2022-09-07T23:48:00.308Z,15.07
2022-09-07T23:50:27.891Z,17.33
2022-09-07T23:52:55.066Z,16.00
2022-09-07T23:55:22.397Z,14.90
2022-09-07T23:57:49.853Z,17.08
